Time;durP1;ratioP1;P1;durP2;ratioP2;P2;SDS_P1;SDS_P2;PMS_P1;PMS_P2;Temp;Humidity;BMP_temperature;BMP_pressure;BME280_temperature;BME280_humidity;BME280_pressure;Samples;Min_cycle;Max_cycle;Signal;HPM_P1;HPM_P2
2022/12/31 00:00:44;;;;;;;0.70;0.70;;;16.40;99.90;;;;;;913941;153;27385;-76
2022/12/31 00:03:10;;;;;;;1.25;0.55;;;16.40;99.90;;;;;;914298;153;28613;-77
2022/12/31 00:05:37;;;;;;;0.88;0.70;;;16.50;99.90;;;;;;915713;154;27412;-77
2022/12/31 00:08:03;;;;;;;0.70;0.70;;;16.50;99.90;;;;;;913142;154;27433;-77
2022/12/31 00:10:31;;;;;;;0.50;0.50;;;16.50;99.90;;;;;;917422;152;27362;-76
2022/12/31 00:12:57;;;;;;;1.05;0.65;;;16.50;99.90;;;;;;913455;154;27512;-76
2022/12/31 00:15:23;;;;;;;0.88;0.82;;;16.50;99.90;;;;;;914354;153;27491;-76
2022/12/31 00:17:50;;;;;;;0.40;0.40;;;16.60;99.90;;;;;;912570;156;27315;-77
2022/12/31 00:20:16;;;;;;;0.45;0.45;;;16.60;99.90;;;;;;913207;154;27404;-77
2022/12/31 00:22:43;;;;;;;0.40;0.40;;;16.60;99.90;;;;;;912691;154;27344;-77
2022/12/31 00:25:10;;;;;;;0.60;0.60;;;16.60;99.90;;;;;;913750;154;27410;-76
2022/12/31 00:27:36;;;;;;;0.82;0.80;;;16.60;99.90;;;;;;912563;154;27497;-76
2022/12/31 00:30:03;;;;;;;0.70;0.70;;;16.70;99.90;;;;;;913636;153;27351;-77
2022/12/31 00:32:29;;;;;;;0.78;0.68;;;16.70;99.90;;;;;;914255;154;27490;-77
2022/12/31 00:34:56;;;;;;;0.80;0.80;;;16.60;99.90;;;;;;911453;154;27382;-76
2022/12/31 00:37:23;;;;;;;0.85;0.68;;;16.70;99.90;;;;;;914214;153;27409;-76
2022/12/31 00:39:49;;;;;;;0.60;0.60;;;16.70;99.90;;;;;;913489;156;27394;-76
2022/12/31 00:42:16;;;;;;;0.82;0.78;;;16.70;99.90;;;;;;913041;153;27422;-76
2022/12/31 00:44:42;;;;;;;1.02;0.80;;;16.70;99.90;;;;;;914114;154;27348;-76
2022/12/31 00:47:09;;;;;;;0.60;0.60;;;16.70;99.90;;;;;;911070;154;27344;-77
2022/12/31 00:49:35;;;;;;;0.80;0.68;;;16.70;99.90;;;;;;912649;155;27430;-77
2022/12/31 00:52:02;;;;;;;0.53;0.50;;;16.70;99.90;;;;;;914099;154;27398;-76
2022/12/31 00:54:29;;;;;;;1.70;1.05;;;16.80;99.90;;;;;;915600;154;27357;-75
2022/12/31 00:56:55;;;;;;;0.70;0.70;;;16.80;99.90;;;;;;912033;156;27294;-73
2022/12/31 00:59:22;;;;;;;0.60;0.50;;;16.80;99.90;;;;;;906292;157;27508;-73
2022/12/31 01:01:49;;;;;;;0.70;0.70;;;16.80;99.90;;;;;;908140;156;27328;-76
2022/12/31 01:04:15;;;;;;;0.60;0.60;;;16.80;99.90;;;;;;912026;153;27374;-77
2022/12/31 01:06:42;;;;;;;0.60;0.60;;;16.80;99.90;;;;;;912159;154;27449;-76
2022/12/31 01:09:08;;;;;;;0.62;0.62;;;16.80;99.90;;;;;;913049;154;27438;-75
2022/12/31 01:11:35;;;;;;;0.53;0.53;;;16.80;99.90;;;;;;913986;156;27333;-76
2022/12/31 01:14:04;;;;;;;0.60;0.60;;;16.90;99.90;;;;;;906706;153;27464;-76
2022/12/31 01:16:30;;;;;;;0.70;0.70;;;16.90;99.90;;;;;;919118;152;27383;-75
2022/12/31 01:18:57;;;;;;;0.62;0.62;;;16.90;99.90;;;;;;916433;152;27427;-75
2022/12/31 01:21:24;;;;;;;0.40;0.40;;;16.90;99.90;;;;;;920884;152;27335;-76
2022/12/31 01:23:50;;;;;;;0.50;0.50;;;16.90;99.90;;;;;;917793;152;27403;-76
2022/12/31 01:26:17;;;;;;;0.60;0.60;;;16.90;99.90;;;;;;922046;150;27236;-76
2022/12/31 01:28:43;;;;;;;0.60;0.60;;;16.90;99.90;;;;;;916308;152;27406;-75
2022/12/31 01:31:10;;;;;;;0.37;0.37;;;16.90;99.90;;;;;;918374;152;27396;-76
2022/12/31 01:33:37;;;;;;;0.68;0.68;;;16.90;99.90;;;;;;920794;150;27322;-75
2022/12/31 01:36:03;;;;;;;0.37;0.37;;;17.00;99.90;;;;;;918026;152;27384;-76
2022/12/31 01:38:30;;;;;;;0.50;0.50;;;17.00;99.90;;;;;;918619;152;27430;-76
2022/12/31 01:40:56;;;;;;;0.42;0.42;;;17.00;99.90;;;;;;918582;152;27441;-77
2022/12/31 01:43:23;;;;;;;0.70;0.70;;;17.00;99.90;;;;;;920206;152;27487;-75
2022/12/31 01:45:49;;;;;;;0.50;0.50;;;17.00;99.90;;;;;;918267;151;27394;-76
2022/12/31 01:48:16;;;;;;;0.40;0.40;;;17.10;99.90;;;;;;919552;152;27336;-75
2022/12/31 01:50:43;;;;;;;0.40;0.40;;;17.10;99.90;;;;;;918847;152;27444;-76
2022/12/31 01:53:09;;;;;;;0.72;0.60;;;17.10;99.90;;;;;;919145;151;27331;-76
2022/12/31 01:55:36;;;;;;;0.30;0.30;;;17.10;99.90;;;;;;918906;152;27391;-76
2022/12/31 01:58:11;;;;;;;0.30;0.30;;;17.10;99.90;;;;;;919003;152;27372;-75
2022/12/31 02:00:37;;;;;;;0.47;0.47;;;17.10;99.90;;;;;;918244;152;27372;-75
2022/12/31 02:03:04;;;;;;;0.75;0.53;;;17.20;99.90;;;;;;917494;152;27448;-76
2022/12/31 02:05:45;;;;;;;0.50;0.50;;;17.20;99.90;;;;;;918411;151;27405;-75
2022/12/31 02:08:12;;;;;;;0.33;0.33;;;17.20;99.90;;;;;;916947;152;27376;-76
2022/12/31 02:10:39;;;;;;;0.50;0.50;;;17.30;99.90;;;;;;919407;152;27333;-76
2022/12/31 02:13:05;;;;;;;0.40;0.40;;;17.30;99.90;;;;;;918394;152;27497;-76
2022/12/31 02:15:34;;;;;;;0.85;0.72;;;17.40;99.90;;;;;;920004;152;27290;-76
2022/12/31 02:18:10;;;;;;;0.33;0.33;;;17.40;99.90;;;;;;918269;153;27395;-76
2022/12/31 02:20:36;;;;;;;0.70;0.70;;;17.40;99.70;;;;;;917515;152;27945;-75
2022/12/31 02:23:21;;;;;;;0.60;0.50;;;17.50;99.50;;;;;;917196;152;27404;-75
2022/12/31 02:26:10;;;;;;;2.83;0.95;;;17.50;99.30;;;;;;921729;151;27273;-76
2022/12/31 02:28:55;;;;;;;0.47;0.47;;;17.50;99.10;;;;;;917849;153;27450;-75
2022/12/31 02:31:24;;;;;;;0.78;0.60;;;17.60;98.90;;;;;;918711;152;27341;-76
2022/12/31 02:34:15;;;;;;;1.22;0.80;;;17.60;98.60;;;;;;919246;152;27421;-76
2022/12/31 02:36:42;;;;;;;0.45;0.45;;;17.60;98.60;;;;;;919227;152;27425;-75
2022/12/31 02:39:08;;;;;;;0.82;0.80;;;17.60;98.40;;;;;;917621;152;27383;-75
2022/12/31 02:41:50;;;;;;;0.70;0.70;;;17.60;98.30;;;;;;906886;154;27363;-75
2022/12/31 02:44:25;;;;;;;0.50;0.50;;;17.60;98.00;;;;;;917561;153;27366;-76
2022/12/31 02:47:07;;;;;;;0.50;0.50;;;17.60;97.90;;;;;;918291;151;27327;-76
2022/12/31 02:50:01;;;;;;;0.60;0.60;;;17.60;97.80;;;;;;917466;152;27372;-75
2022/12/31 02:52:43;;;;;;;0.78;0.78;;;17.60;97.70;;;;;;918560;152;27700;-78
2022/12/31 02:55:27;;;;;;;1.50;0.50;;;17.60;97.70;;;;;;917896;151;27507;-76
2022/12/31 02:58:12;;;;;;;0.70;0.68;;;17.60;97.60;;;;;;919427;152;28774;-77
2022/12/31 03:03:24;;;;;;;0.93;0.72;;;17.60;97.90;;;;;;918162;152;27459;-77
2022/12/31 03:05:50;;;;;;;0.98;0.65;;;17.60;97.40;;;;;;919657;151;27336;-77
2022/12/31 03:08:20;;;;;;;1.17;0.75;;;17.60;97.50;;;;;;917012;152;27305;-76
2022/12/31 03:10:46;;;;;;;0.55;0.55;;;17.60;97.40;;;;;;919286;152;27387;-76
2022/12/31 03:13:13;;;;;;;1.62;0.90;;;17.60;97.30;;;;;;920029;152;27458;-76
2022/12/31 03:15:39;;;;;;;0.80;0.80;;;17.60;97.10;;;;;;917516;152;27302;-76
2022/12/31 03:18:06;;;;;;;0.70;0.70;;;17.60;97.00;;;;;;919374;152;27490;-76
2022/12/31 03:23:18;;;;;;;0.55;0.55;;;17.70;96.80;;;;;;918254;152;27529;-76
2022/12/31 03:25:44;;;;;;;0.70;0.70;;;17.70;96.80;;;;;;917434;152;27525;-77
2022/12/31 03:28:11;;;;;;;1.77;0.80;;;17.70;96.70;;;;;;916517;152;27490;-77
2022/12/31 03:30:37;;;;;;;0.78;0.78;;;17.70;96.70;;;;;;918709;152;27330;-77
2022/12/31 03:33:04;;;;;;;0.82;0.82;;;17.70;96.60;;;;;;919597;152;27337;-77
2022/12/31 03:35:31;;;;;;;0.82;0.80;;;17.70;96.50;;;;;;920161;151;27345;-76
2022/12/31 03:37:57;;;;;;;0.60;0.60;;;17.70;96.30;;;;;;917797;152;27349;-77
2022/12/31 03:40:24;;;;;;;1.45;0.65;;;17.70;96.20;;;;;;919427;152;27401;-76
2022/12/31 03:42:50;;;;;;;0.62;0.62;;;17.70;96.10;;;;;;920093;152;27488;-76
2022/12/31 03:45:17;;;;;;;0.95;0.82;;;17.70;95.90;;;;;;917771;151;27346;-80
2022/12/31 03:47:44;;;;;;;0.88;0.88;;;17.80;95.90;;;;;;906404;153;27427;-80
2022/12/31 03:50:10;;;;;;;0.88;0.62;;;17.80;95.90;;;;;;923290;150;27343;-78
2022/12/31 03:52:37;;;;;;;0.60;0.60;;;17.80;95.80;;;;;;921044;150;27412;-77
2022/12/31 03:55:03;;;;;;;0.65;0.65;;;17.80;95.70;;;;;;907011;153;27450;-77
2022/12/31 03:57:30;;;;;;;0.50;0.50;;;17.80;95.70;;;;;;924254;150;27335;-78
2022/12/31 03:59:56;;;;;;;0.57;0.57;;;17.80;95.60;;;;;;927018;150;27309;-78
2022/12/31 04:02:23;;;;;;;1.62;0.70;;;17.80;95.50;;;;;;922461;150;27299;-78
2022/12/31 04:04:50;;;;;;;1.65;0.70;;;17.90;95.50;;;;;;906284;153;27508;-77
2022/12/31 04:07:16;;;;;;;0.70;0.70;;;17.90;95.30;;;;;;924506;150;27769;-77
2022/12/31 04:09:43;;;;;;;0.80;0.68;;;17.90;95.40;;;;;;905149;153;27305;-77
2022/12/31 04:12:09;;;;;;;0.88;0.65;;;17.90;95.30;;;;;;922055;150;27816;-78
2022/12/31 04:14:36;;;;;;;1.60;0.82;;;17.90;95.40;;;;;;916658;154;27357;-76
2022/12/31 04:17:03;;;;;;;0.90;0.68;;;17.90;95.30;;;;;;914794;156;27407;-77
2022/12/31 04:19:29;;;;;;;0.70;0.62;;;17.90;95.20;;;;;;913141;155;27420;-76
2022/12/31 04:21:56;;;;;;;0.70;0.70;;;17.90;95.30;;;;;;910909;154;27433;-76
2022/12/31 04:24:22;;;;;;;0.60;0.60;;;17.90;95.20;;;;;;913048;154;27431;-77
2022/12/31 04:26:49;;;;;;;1.37;0.70;;;18.00;95.30;;;;;;914975;153;27322;-76
2022/12/31 04:29:16;;;;;;;0.80;0.80;;;18.00;95.20;;;;;;914033;156;27345;-76
2022/12/31 04:31:42;;;;;;;1.20;0.85;;;18.00;94.90;;;;;;914100;156;27494;-76
2022/12/31 04:34:09;;;;;;;1.02;0.62;;;18.00;95.00;;;;;;911061;153;27498;-78
2022/12/31 04:36:35;;;;;;;0.62;0.60;;;18.00;95.00;;;;;;912041;154;27339;-76
2022/12/31 04:39:02;;;;;;;0.60;0.60;;;18.00;95.00;;;;;;907362;156;27338;-74
2022/12/31 04:41:28;;;;;;;1.20;0.80;;;18.00;94.90;;;;;;921817;154;27378;-78
2022/12/31 04:43:55;;;;;;;1.95;0.60;;;18.00;94.80;;;;;;913751;156;27373;-76
2022/12/31 04:46:27;;;;;;;1.10;1.00;;;18.00;94.80;;;;;;913458;153;27410;-76
2022/12/31 04:48:54;;;;;;;1.15;0.70;;;18.10;94.70;;;;;;911502;156;27398;-76
2022/12/31 04:51:20;;;;;;;2.33;1.10;;;18.10;94.80;;;;;;913552;154;27311;-77
2022/12/31 04:53:47;;;;;;;0.60;0.60;;;18.10;94.70;;;;;;912425;154;27346;-78
2022/12/31 04:56:13;;;;;;;1.45;0.70;;;18.10;94.70;;;;;;913821;154;27373;-76
2022/12/31 04:58:40;;;;;;;1.75;0.60;;;18.10;94.70;;;;;;912688;156;27423;-75
2022/12/31 05:01:07;;;;;;;0.65;0.60;;;18.10;94.60;;;;;;914351;156;27333;-75
2022/12/31 05:03:33;;;;;;;0.80;0.60;;;18.10;94.60;;;;;;913842;154;27419;-76
2022/12/31 05:06:06;;;;;;;1.05;0.80;;;18.10;94.40;;;;;;913254;153;27295;-77
2022/12/31 05:08:32;;;;;;;1.15;0.78;;;18.10;94.40;;;;;;913322;153;27524;-76
2022/12/31 05:10:59;;;;;;;0.60;0.60;;;18.10;94.40;;;;;;913955;153;28534;-75
2022/12/31 05:13:25;;;;;;;0.70;0.70;;;18.20;94.30;;;;;;913701;154;27431;-77
2022/12/31 05:15:52;;;;;;;0.80;0.70;;;18.10;94.20;;;;;;918382;152;27389;-77
2022/12/31 05:18:19;;;;;;;1.65;1.20;;;18.20;94.20;;;;;;918309;152;27376;-76
2022/12/31 05:20:45;;;;;;;0.82;0.60;;;18.20;94.30;;;;;;918733;152;27475;-76
2022/12/31 05:23:12;;;;;;;0.80;0.80;;;18.20;94.20;;;;;;919132;152;27493;-76
2022/12/31 05:25:38;;;;;;;1.67;0.78;;;18.30;94.20;;;;;;919968;151;27402;-75
2022/12/31 05:28:05;;;;;;;1.25;0.88;;;18.30;94.20;;;;;;917569;152;27330;-76
2022/12/31 05:30:31;;;;;;;0.55;0.55;;;18.30;94.10;;;;;;918805;152;27307;-77
2022/12/31 05:32:58;;;;;;;0.95;0.93;;;18.30;94.00;;;;;;919681;152;27462;-77
2022/12/31 05:35:25;;;;;;;0.98;0.80;;;18.30;94.00;;;;;;920729;152;27375;-76
2022/12/31 05:37:51;;;;;;;0.80;0.70;;;18.30;93.70;;;;;;918779;152;27752;-77
2022/12/31 05:40:18;;;;;;;0.70;0.70;;;18.40;93.80;;;;;;917444;152;27325;-77
2022/12/31 05:42:44;;;;;;;1.42;0.47;;;18.40;93.60;;;;;;918874;152;27310;-78
2022/12/31 05:45:14;;;;;;;1.15;0.70;;;18.40;93.70;;;;;;920079;152;27435;-78
2022/12/31 05:47:38;;;;;;;0.60;0.60;;;18.40;93.60;;;;;;917087;152;27406;-76
2022/12/31 05:50:04;;;;;;;0.90;0.68;;;18.40;93.50;;;;;;919568;152;27411;-77
2022/12/31 05:52:31;;;;;;;0.57;0.57;;;18.40;93.60;;;;;;919189;152;27357;-77
2022/12/31 05:54:57;;;;;;;1.20;0.82;;;18.40;93.60;;;;;;921352;152;27280;-78
2022/12/31 05:57:24;;;;;;;0.50;0.50;;;18.50;93.50;;;;;;917518;152;27331;-78
2022/12/31 05:59:52;;;;;;;2.50;0.90;;;18.50;93.40;;;;;;917774;153;27469;-78
2022/12/31 06:02:17;;;;;;;0.60;0.60;;;18.50;93.20;;;;;;919164;152;27376;-78
2022/12/31 06:04:44;;;;;;;1.07;0.70;;;18.50;93.20;;;;;;917955;151;27333;-78
2022/12/31 06:07:10;;;;;;;1.70;0.68;;;18.50;93.20;;;;;;919096;152;27309;-77
2022/12/31 06:09:37;;;;;;;0.42;0.42;;;18.50;93.00;;;;;;918926;152;27521;-78
2022/12/31 06:12:04;;;;;;;0.57;0.57;;;18.60;92.90;;;;;;918940;154;27418;-78
2022/12/31 06:14:30;;;;;;;0.50;0.50;;;18.50;92.70;;;;;;916404;152;27412;-77
2022/12/31 06:16:57;;;;;;;0.72;0.70;;;18.60;92.70;;;;;;921118;152;27352;-77
2022/12/31 06:19:23;;;;;;;1.92;0.85;;;18.50;92.50;;;;;;921740;152;27458;-76
2022/12/31 06:21:50;;;;;;;0.37;0.37;;;18.50;92.40;;;;;;915055;155;27334;-77
2022/12/31 06:24:17;;;;;;;0.57;0.50;;;18.50;92.40;;;;;;932210;150;27385;-78
2022/12/31 06:26:43;;;;;;;0.70;0.70;;;18.60;92.50;;;;;;922906;152;27397;-77
2022/12/31 06:29:10;;;;;;;0.40;0.40;;;18.50;92.50;;;;;;922425;152;27497;-77
2022/12/31 06:31:36;;;;;;;0.95;0.80;;;18.50;92.30;;;;;;923678;154;27323;-78
2022/12/31 06:34:03;;;;;;;0.53;0.53;;;18.60;92.30;;;;;;921756;152;27397;-77
2022/12/31 06:36:29;;;;;;;0.72;0.72;;;18.60;92.30;;;;;;924710;154;27390;-77
2022/12/31 06:38:56;;;;;;;0.80;0.80;;;18.60;92.20;;;;;;921953;152;27401;-77
2022/12/31 06:41:23;;;;;;;0.72;0.72;;;18.60;92.30;;;;;;917149;152;27458;-76
2022/12/31 06:43:49;;;;;;;1.55;0.88;;;18.60;92.50;;;;;;922036;152;27649;-76
2022/12/31 06:46:16;;;;;;;0.75;0.60;;;18.70;92.20;;;;;;921320;152;27445;-75
2022/12/31 06:48:43;;;;;;;1.22;0.72;;;18.70;92.20;;;;;;921331;154;27364;-79
2022/12/31 06:51:09;;;;;;;1.02;0.68;;;18.70;91.90;;;;;;921431;152;27353;-78
2022/12/31 06:53:36;;;;;;;0.60;0.50;;;18.80;91.80;;;;;;922808;154;27396;-75
2022/12/31 06:56:08;;;;;;;0.95;0.60;;;18.80;91.70;;;;;;921438;152;27375;-75
2022/12/31 06:58:35;;;;;;;0.68;0.68;;;18.70;91.50;;;;;;922811;152;27309;-76
2022/12/31 07:01:19;;;;;;;0.50;0.50;;;18.70;91.50;;;;;;922418;154;27630;-76
2022/12/31 07:03:46;;;;;;;1.27;0.60;;;18.70;91.50;;;;;;921465;152;27335;-77
2022/12/31 07:06:24;;;;;;;1.47;0.47;;;18.70;91.40;;;;;;921811;152;27467;-77
2022/12/31 07:09:18;;;;;;;0.42;0.42;;;18.60;91.60;;;;;;916991;154;27475;-76
2022/12/31 07:11:45;;;;;;;0.62;0.62;;;18.70;91.40;;;;;;930581;149;27321;-77
2022/12/31 07:14:30;;;;;;;0.50;0.50;;;18.60;91.50;;;;;;920030;152;27395;-77
2022/12/31 07:17:08;;;;;;;0.60;0.60;;;18.60;91.40;;;;;;916247;154;27414;-78
2022/12/31 07:22:12;;;;;;;0.93;0.80;;;18.60;91.50;;;;;;973641;145;38861;-77
2022/12/31 07:24:38;;;;;;;0.95;0.70;;;18.60;91.40;;;;;;956904;147;27323;-77
2022/12/31 07:27:11;;;;;;;0.60;0.60;;;18.60;91.50;;;;;;955923;149;27339;-75
2022/12/31 07:29:43;;;;;;;1.15;0.80;;;18.60;91.40;;;;;;956662;145;27406;-77
2022/12/31 07:32:22;;;;;;;1.10;1.00;;;18.60;91.40;;;;;;955236;147;27288;-78
2022/12/31 07:34:54;;;;;;;0.75;0.68;;;18.60;91.40;;;;;;943736;148;27279;-77
2022/12/31 07:37:51;;;;;;;2.10;0.93;;;18.60;91.30;;;;;;955090;148;27400;-77
2022/12/31 07:40:30;;;;;;;0.75;0.75;;;18.60;91.30;;;;;;955767;145;27375;-77
2022/12/31 07:43:05;;;;;;;0.75;0.75;;;18.60;91.30;;;;;;956745;148;27426;-75
2022/12/31 07:45:43;;;;;;;0.60;0.53;;;18.60;91.30;;;;;;956692;148;27290;-76
2022/12/31 07:48:22;;;;;;;2.42;1.40;;;18.60;91.50;;;;;;953694;148;27297;-76
2022/12/31 07:50:49;;;;;;;2.72;0.95;;;18.60;91.50;;;;;;955798;148;27426;-76
2022/12/31 07:53:15;;;;;;;0.65;0.65;;;18.70;91.40;;;;;;954662;148;27342;-76
2022/12/31 07:55:42;;;;;;;0.90;0.90;;;18.70;91.40;;;;;;955142;147;27284;-76
2022/12/31 07:58:42;;;;;;;0.93;0.93;;;18.70;91.00;;;;;;954714;148;27263;-76
2022/12/31 08:01:08;;;;;;;0.60;0.60;;;18.70;91.20;;;;;;957025;147;27271;-76
2022/12/31 08:03:53;;;;;;;1.77;0.82;;;18.80;91.10;;;;;;954488;148;27302;-77
2022/12/31 08:06:31;;;;;;;1.55;0.82;;;18.80;90.80;;;;;;953875;148;27956;-77
2022/12/31 08:09:01;;;;;;;1.55;1.25;;;18.80;90.80;;;;;;941231;146;27378;-73
2022/12/31 08:11:30;;;;;;;1.05;0.70;;;18.90;90.80;;;;;;939629;148;27870;-77
2022/12/31 08:13:57;;;;;;;0.80;0.80;;;18.90;90.90;;;;;;936075;149;27314;-77
2022/12/31 08:16:24;;;;;;;0.70;0.70;;;18.90;90.70;;;;;;942369;149;27309;-76
2022/12/31 08:18:50;;;;;;;0.80;0.78;;;19.00;90.40;;;;;;943072;149;27284;-78
2022/12/31 08:21:20;;;;;;;0.70;0.70;;;19.00;90.40;;;;;;941896;150;27432;-76
2022/12/31 08:24:11;;;;;;;1.52;0.90;;;19.00;90.20;;;;;;937123;149;27358;-76
2022/12/31 08:26:37;;;;;;;0.90;0.90;;;19.00;90.10;;;;;;946781;148;27335;-75
2022/12/31 08:29:19;;;;;;;2.00;1.05;;;19.10;90.00;;;;;;945436;148;27236;-75
2022/12/31 08:31:48;;;;;;;1.30;1.10;;;19.10;90.00;;;;;;936041;149;27434;-78
2022/12/31 08:34:29;;;;;;;1.47;1.00;;;19.10;89.70;;;;;;930216;146;27339;-75
2022/12/31 08:37:11;;;;;;;0.88;0.80;;;19.10;89.40;;;;;;954883;146;27311;-75
2022/12/31 08:39:47;;;;;;;1.40;1.00;;;19.10;89.30;;;;;;935090;152;27364;-75
2022/12/31 08:42:32;;;;;;;1.00;0.70;;;19.10;88.80;;;;;;955916;149;27336;-76
2022/12/31 08:45:16;;;;;;;3.17;1.30;;;19.10;89.20;;;;;;945927;149;27643;-76
2022/12/31 08:47:49;;;;;;;0.88;0.88;;;19.10;88.50;;;;;;949486;149;27394;-76
2022/12/31 08:50:16;;;;;;;1.90;0.90;;;19.10;88.50;;;;;;948983;149;27344;-76
2022/12/31 08:52:42;;;;;;;1.30;1.10;;;19.10;88.10;;;;;;950317;149;27366;-78
2022/12/31 08:55:12;;;;;;;0.98;0.90;;;19.00;87.80;;;;;;932001;150;27360;-76
2022/12/31 08:57:42;;;;;;;1.85;1.07;;;19.10;88.10;;;;;;930066;149;27373;-77
2022/12/31 09:00:17;;;;;;;1.27;0.72;;;19.00;88.20;;;;;;929454;150;27372;-75
2022/12/31 09:03:17;;;;;;;1.70;0.90;;;19.00;88.10;;;;;;931603;149;27365;-76
2022/12/31 09:05:47;;;;;;;1.02;0.93;;;19.00;87.70;;;;;;931460;149;27382;-76
2022/12/31 09:08:25;;;;;;;1.22;0.90;;;19.10;87.90;;;;;;931519;150;27377;-78
2022/12/31 09:10:52;;;;;;;0.90;0.90;;;19.00;87.60;;;;;;939546;149;27487;-75
2022/12/31 09:13:37;;;;;;;2.00;0.90;;;19.00;87.60;;;;;;951586;146;27342;-77
2022/12/31 09:16:10;;;;;;;2.65;1.60;;;19.00;87.40;;;;;;951134;146;27388;-77
2022/12/31 09:18:36;;;;;;;0.93;0.80;;;19.10;87.60;;;;;;951341;146;27501;-75
2022/12/31 09:21:03;;;;;;;1.92;0.93;;;19.10;87.50;;;;;;950763;146;27365;-78
2022/12/31 09:23:29;;;;;;;1.60;0.90;;;19.10;87.50;;;;;;934451;148;27358;-75
2022/12/31 09:26:05;;;;;;;1.00;0.90;;;19.10;87.50;;;;;;934849;148;27351;-75
2022/12/31 09:28:44;;;;;;;2.25;1.10;;;19.10;87.50;;;;;;933275;148;27384;-76
2022/12/31 09:31:16;;;;;;;1.20;1.10;;;19.10;87.00;;;;;;933098;148;27370;-78
2022/12/31 09:33:55;;;;;;;1.45;1.35;;;19.20;86.80;;;;;;931205;149;27439;-76
2022/12/31 09:36:30;;;;;;;1.12;1.02;;;19.20;86.80;;;;;;931332;149;27408;-75
2022/12/31 09:39:24;;;;;;;1.12;1.02;;;19.20;86.20;;;;;;931741;149;27817;-75
2022/12/31 09:42:06;;;;;;;1.05;0.95;;;19.20;86.20;;;;;;931823;149;27476;-77
2022/12/31 09:44:50;;;;;;;1.25;1.12;;;19.30;85.80;;;;;;932167;149;27378;-78
2022/12/31 09:47:41;;;;;;;2.02;1.10;;;19.30;86.40;;;;;;934023;149;27389;-75
2022/12/31 09:50:20;;;;;;;1.30;1.10;;;19.30;86.50;;;;;;932891;149;27279;-75
2022/12/31 09:52:52;;;;;;;1.15;0.90;;;19.40;85.30;;;;;;931599;149;27382;-75
2022/12/31 09:55:33;;;;;;;1.50;1.37;;;19.40;86.30;;;;;;933573;149;27314;-76
2022/12/31 09:58:15;;;;;;;1.75;1.05;;;19.50;85.80;;;;;;918580;150;27393;-76
2022/12/31 10:01:06;;;;;;;2.05;1.30;;;19.50;84.90;;;;;;932943;148;27541;-77
2022/12/31 10:03:50;;;;;;;1.45;1.35;;;19.50;84.30;;;;;;935114;148;27457;-75
2022/12/31 10:06:25;;;;;;;2.20;1.45;;;19.60;84.50;;;;;;917378;151;27479;-75
2022/12/31 10:09:29;;;;;;;1.42;1.30;;;19.60;84.70;;;;;;935749;149;27489;-80
2022/12/31 10:12:11;;;;;;;1.60;1.30;;;19.70;84.70;;;;;;936892;149;27327;-77
2022/12/31 10:15:05;;;;;;;1.45;1.15;;;19.70;84.60;;;;;;934678;149;27418;-79
2022/12/31 10:17:40;;;;;;;0.93;0.75;;;19.80;83.90;;;;;;937063;149;27361;-77
2022/12/31 10:20:44;;;;;;;0.75;0.75;;;19.80;84.10;;;;;;934671;149;27374;-76
2022/12/31 10:23:26;;;;;;;1.70;1.12;;;19.80;83.40;;;;;;931699;149;27408;-79
2022/12/31 10:25:55;;;;;;;0.70;0.70;;;19.90;83.30;;;;;;929206;150;27369;-76
2022/12/31 10:28:31;;;;;;;0.60;0.60;;;20.00;83.30;;;;;;925210;153;27306;-76
2022/12/31 10:31:03;;;;;;;2.02;0.88;;;20.00;82.60;;;;;;929113;152;27441;-76
2022/12/31 10:33:41;;;;;;;1.22;0.98;;;20.10;82.70;;;;;;930631;152;27489;-79
2022/12/31 10:36:08;;;;;;;1.35;1.10;;;20.10;82.20;;;;;;928707;152;27439;-75
2022/12/31 10:38:37;;;;;;;1.07;0.93;;;20.20;82.20;;;;;;927484;152;27340;-75
2022/12/31 10:41:41;;;;;;;1.47;0.90;;;20.20;81.80;;;;;;928275;153;27424;-76
2022/12/31 10:44:28;;;;;;;1.20;1.10;;;20.20;80.70;;;;;;936627;151;27330;-78
2022/12/31 10:47:10;;;;;;;1.77;1.02;;;20.30;80.70;;;;;;937934;151;27371;-75
2022/12/31 10:49:58;;;;;;;1.70;0.70;;;20.30;80.60;;;;;;944909;151;27315;-73
2022/12/31 10:52:25;;;;;;;1.92;1.02;;;20.30;80.40;;;;;;944323;151;27405;-75
2022/12/31 10:55:00;;;;;;;0.85;0.85;;;20.30;79.70;;;;;;936789;152;27473;-75
2022/12/31 10:57:30;;;;;;;0.80;0.75;;;20.30;79.50;;;;;;933026;151;28150;-75
2022/12/31 11:00:15;;;;;;;1.15;1.05;;;20.30;79.60;;;;;;933935;149;27391;-75
2022/12/31 11:03:00;;;;;;;1.40;0.88;;;20.30;79.90;;;;;;935145;148;27373;-76
2022/12/31 11:05:44;;;;;;;0.70;0.70;;;20.30;79.00;;;;;;933177;151;27767;-75
2022/12/31 11:08:48;;;;;;;1.85;0.70;;;20.30;79.70;;;;;;934416;151;27385;-78
2022/12/31 11:11:26;;;;;;;1.32;1.00;;;20.30;79.40;;;;;;934083;151;27370;-76
2022/12/31 11:14:24;;;;;;;1.72;1.32;;;20.30;79.40;;;;;;934936;151;27393;-75
2022/12/31 11:17:27;;;;;;;1.82;1.05;;;20.40;79.20;;;;;;934635;151;27357;-75
2022/12/31 11:19:54;;;;;;;1.20;1.10;;;20.40;79.60;;;;;;934974;151;27484;-75
2022/12/31 11:22:35;;;;;;;0.90;0.90;;;20.40;79.90;;;;;;935135;151;27355;-76
2022/12/31 11:25:05;;;;;;;3.00;1.20;;;20.50;79.20;;;;;;932285;149;27465;-77
2022/12/31 11:27:43;;;;;;;2.15;1.00;;;20.60;79.70;;;;;;931155;148;27398;-76
2022/12/31 11:30:22;;;;;;;1.15;0.90;;;20.60;79.70;;;;;;932501;149;27342;-76
2022/12/31 11:33:10;;;;;;;2.00;1.02;;;20.70;79.50;;;;;;931591;149;27399;-78
2022/12/31 11:35:55;;;;;;;1.72;1.30;;;20.80;79.30;;;;;;932569;149;27383;-75
2022/12/31 11:38:24;;;;;;;1.07;0.85;;;20.90;79.10;;;;;;932904;149;27287;-76
2022/12/31 11:41:12;;;;;;;1.10;1.00;;;21.00;78.90;;;;;;933989;149;27371;-75
2022/12/31 11:44:06;;;;;;;1.55;0.95;;;21.00;78.70;;;;;;932625;149;27464;-76
2022/12/31 11:46:42;;;;;;;2.12;1.70;;;21.10;78.20;;;;;;934333;149;27367;-77
2022/12/31 11:49:26;;;;;;;2.87;1.12;;;21.10;78.00;;;;;;932975;149;27805;-76
2022/12/31 11:51:59;;;;;;;1.00;0.85;;;21.20;77.70;;;;;;933590;149;27314;-76
2022/12/31 11:54:34;;;;;;;1.07;0.93;;;21.30;77.60;;;;;;933596;149;27285;-76
2022/12/31 11:57:13;;;;;;;1.15;1.00;;;21.30;77.20;;;;;;933533;149;27448;-76
2022/12/31 11:59:40;;;;;;;2.50;1.45;;;21.40;76.90;;;;;;932010;149;27481;-78
2022/12/31 12:02:22;;;;;;;2.52;1.50;;;21.40;76.80;;;;;;924112;150;27404;-75
2022/12/31 12:04:48;;;;;;;1.62;1.20;;;21.50;76.40;;;;;;932918;148;27386;-76
2022/12/31 12:07:15;;;;;;;2.87;1.02;;;21.50;76.20;;;;;;932441;148;27327;-76
2022/12/31 12:09:42;;;;;;;0.90;0.90;;;21.50;75.80;;;;;;934016;148;27394;-76
2022/12/31 12:12:08;;;;;;;6.70;1.90;;;21.50;75.10;;;;;;934550;148;27367;-78
2022/12/31 12:14:35;;;;;;;2.95;1.75;;;21.50;74.80;;;;;;934028;148;27363;-76
2022/12/31 12:17:01;;;;;;;2.75;1.40;;;21.50;74.30;;;;;;932512;148;27329;-76
2022/12/31 12:19:28;;;;;;;1.60;0.80;;;21.50;74.50;;;;;;933817;148;27320;-76
2022/12/31 12:21:55;;;;;;;2.47;1.80;;;21.50;74.50;;;;;;933859;148;27340;-76
2022/12/31 12:24:21;;;;;;;2.60;1.42;;;21.50;74.60;;;;;;930689;149;27413;-75
2022/12/31 12:26:48;;;;;;;1.95;1.47;;;21.50;74.20;;;;;;932737;149;27356;-76
2022/12/31 12:29:17;;;;;;;1.42;1.00;;;21.50;73.20;;;;;;951662;146;27400;-75
2022/12/31 12:31:43;;;;;;;2.45;1.15;;;21.50;73.80;;;;;;949975;146;27444;-77
2022/12/31 12:34:22;;;;;;;2.12;1.10;;;21.50;73.90;;;;;;936699;146;27417;-76
2022/12/31 12:36:48;;;;;;;1.27;0.82;;;21.50;74.00;;;;;;951906;146;27299;-76
2022/12/31 12:39:15;;;;;;;1.20;0.88;;;21.50;74.00;;;;;;950599;146;27568;-76
2022/12/31 12:41:41;;;;;;;0.85;0.85;;;21.50;73.70;;;;;;949588;146;27354;-77
2022/12/31 12:44:08;;;;;;;0.80;0.80;;;21.50;73.50;;;;;;949518;146;27456;-76
2022/12/31 12:46:35;;;;;;;1.77;1.10;;;21.50;73.70;;;;;;937536;149;27323;-76
2022/12/31 12:49:02;;;;;;;2.58;1.92;;;21.40;73.60;;;;;;935813;149;27357;-76
2022/12/31 12:51:46;;;;;;;2.75;1.17;;;21.50;73.80;;;;;;949500;146;27470;-76
2022/12/31 12:54:28;;;;;;;1.95;1.62;;;21.40;73.90;;;;;;950230;146;27392;-78
2022/12/31 12:57:18;;;;;;;2.55;1.07;;;21.40;73.90;;;;;;942226;150;27424;-76
2022/12/31 13:00:03;;;;;;;1.27;1.12;;;21.40;73.80;;;;;;933634;149;27276;-75
2022/12/31 13:02:57;;;;;;;1.62;1.05;;;21.40;73.90;;;;;;950952;146;27357;-75
2022/12/31 13:06:01;;;;;;;1.00;0.98;;;21.40;73.70;;;;;;938830;149;27279;-76
2022/12/31 13:08:36;;;;;;;0.70;0.70;;;21.30;73.70;;;;;;944656;148;27326;-75
2022/12/31 13:11:25;;;;;;;2.92;1.42;;;21.20;73.10;;;;;;934972;149;27428;-76
2022/12/31 13:14:02;;;;;;;2.40;1.10;;;21.20;72.80;;;;;;950776;146;27460;-75
2022/12/31 13:16:50;;;;;;;1.02;0.75;;;21.10;72.80;;;;;;949996;146;27434;-76
2022/12/31 13:19:19;;;;;;;1.30;0.98;;;21.10;72.90;;;;;;950866;146;27402;-77
2022/12/31 13:22:04;;;;;;;1.10;0.85;;;21.00;72.70;;;;;;949755;146;27275;-76